createdAt,value
2023-05-04T00:03:56.272Z,12.75
2023-05-04T00:08:59.323Z,12.71
2023-05-04T00:14:02.997Z,12.74
2023-05-04T00:19:05.954Z,12.74
2023-05-04T00:24:08.919Z,12.71
2023-05-04T00:29:12.095Z,12.67
2023-05-04T00:34:15.694Z,12.58
2023-05-04T00:39:18.697Z,12.48
2023-05-04T00:44:24.108Z,12.39
2023-05-04T00:49:27.341Z,12.30
2023-05-04T00:54:30.639Z,12.19
2023-05-04T01:01:35.047Z,12.06
2023-05-04T01:07:01.568Z,12.01
2023-05-04T01:12:56.758Z,11.97
2023-05-04T01:18:00.089Z,11.92
2023-05-04T01:23:04.065Z,11.86
2023-05-04T01:28:24.532Z,11.74
2023-05-04T01:33:29.047Z,11.66
2023-05-04T01:38:32.130Z,11.61
2023-05-04T01:43:36.567Z,11.52
2023-05-04T01:48:40.885Z,11.46
2023-05-04T01:53:43.862Z,11.43
2023-05-04T01:58:46.905Z,11.33
2023-05-04T02:03:50.056Z,11.24
2023-05-04T02:08:53.618Z,11.14
2023-05-04T02:13:56.574Z,11.07
2023-05-04T02:18:59.877Z,11.06
2023-05-04T02:24:05.084Z,11.00
2023-05-04T02:29:08.197Z,10.90
2023-05-04T02:34:11.241Z,10.79
2023-05-04T02:39:23.068Z,10.69
2023-05-04T02:44:25.999Z,10.73
2023-05-04T02:49:28.981Z,10.70
2023-05-04T02:54:32.035Z,10.66
2023-05-04T02:59:35.015Z,10.57
2023-05-04T03:04:38.233Z,10.45
2023-05-04T03:09:43.793Z,10.30
2023-05-04T03:14:47.790Z,10.22
2023-05-04T03:19:50.846Z,10.20
2023-05-04T03:24:54.269Z,10.07
2023-05-04T03:29:57.660Z,9.96
2023-05-04T03:35:03.844Z,9.91
2023-05-04T03:40:10.197Z,9.87
2023-05-04T03:45:13.254Z,9.80
2023-05-04T03:50:16.226Z,9.82
2023-05-04T03:55:19.375Z,9.89
2023-05-04T04:00:25.135Z,9.91
2023-05-04T04:05:33.037Z,9.89
2023-05-04T04:10:37.200Z,9.88
2023-05-04T04:15:41.239Z,9.83
2023-05-04T04:20:46.079Z,9.82
2023-05-04T04:25:49.010Z,9.84
2023-05-04T04:30:53.330Z,9.87
2023-05-04T04:35:56.733Z,9.93
2023-05-04T04:40:59.863Z,9.96
2023-05-04T04:46:04.224Z,10.00
2023-05-04T04:51:11.289Z,10.05
2023-05-04T04:56:14.305Z,10.11
2023-05-04T05:01:18.929Z,10.16
2023-05-04T05:06:22.289Z,10.25
2023-05-04T05:11:25.852Z,10.33
2023-05-04T05:16:28.916Z,10.44
2023-05-04T05:21:31.928Z,10.56
2023-05-04T05:26:35.498Z,10.65
2023-05-04T05:31:38.726Z,10.75
2023-05-04T05:36:41.799Z,10.86
2023-05-04T05:41:45.043Z,10.95
2023-05-04T05:46:48.713Z,11.08
2023-05-04T05:51:51.783Z,11.23
2023-05-04T05:56:54.792Z,11.34
2023-05-04T06:01:57.934Z,11.45
2023-05-04T06:07:00.913Z,11.52
2023-05-04T06:12:06.515Z,11.59
2023-05-04T06:17:10.174Z,11.66
2023-05-04T06:22:13.224Z,11.74
2023-05-04T06:27:16.428Z,11.84
2023-05-04T06:32:19.749Z,11.95
2023-05-04T06:37:23.413Z,12.04
2023-05-04T06:42:31.214Z,12.17
2023-05-04T06:47:38.227Z,12.28
2023-05-04T06:52:43.589Z,12.43
2023-05-04T06:57:46.532Z,12.54
2023-05-04T07:02:49.663Z,12.64
2023-05-04T07:07:53.530Z,12.77
2023-05-04T07:12:56.832Z,12.88
2023-05-04T07:18:00.150Z,12.98
2023-05-04T07:23:04.056Z,13.08
2023-05-04T07:28:07.362Z,13.17
2023-05-04T07:33:11.287Z,13.30
2023-05-04T07:38:14.418Z,13.44
2023-05-04T09:45:43.957Z,16.52
2023-05-04T09:50:54.739Z,16.65
2023-05-04T09:56:18.108Z,16.45
2023-05-04T10:01:21.427Z,16.17
2023-05-04T10:06:33.251Z,16.06
2023-05-04T10:11:37.652Z,16.46
2023-05-04T10:17:02.107Z,16.82
2023-05-04T10:22:33.393Z,16.94
2023-05-04T10:27:57.387Z,17.31
2023-05-04T10:33:02.694Z,17.25
2023-05-04T10:38:06.584Z,17.33
2023-05-04T10:43:13.250Z,17.65
2023-05-04T10:48:16.978Z,17.98
2023-05-04T10:53:34.049Z,18.55
2023-05-04T10:58:37.098Z,19.09
2023-05-04T11:03:43.336Z,19.46
2023-05-04T11:08:49.342Z,19.87
2023-05-04T11:13:52.600Z,20.14
2023-05-04T11:19:09.933Z,20.33
2023-05-04T11:24:13.826Z,20.48
2023-05-04T11:29:16.876Z,20.71
2023-05-04T11:34:21.149Z,20.88
2023-05-04T11:39:31.904Z,20.73
2023-05-04T11:44:37.009Z,20.67
2023-05-04T11:49:40.212Z,20.70
2023-05-04T11:54:43.204Z,20.53
2023-05-04T11:59:49.668Z,20.49
2023-05-04T12:04:53.146Z,20.24
2023-05-04T12:09:56.236Z,20.47
2023-05-04T12:14:59.322Z,20.60
2023-05-04T12:20:03.220Z,20.64
2023-05-04T12:25:07.585Z,20.89
2023-05-04T12:30:11.666Z,21.18
2023-05-04T12:35:14.845Z,21.37
2023-05-04T12:40:28.151Z,21.47
2023-05-04T12:45:32.091Z,21.69
2023-05-04T12:50:36.027Z,21.91
2023-05-04T12:55:39.283Z,22.11
2023-05-04T13:00:45.980Z,22.26
2023-05-04T13:05:49.954Z,22.46
2023-05-04T13:10:53.155Z,22.53
2023-05-04T13:15:56.679Z,22.68
2023-05-04T13:20:59.900Z,22.87
2023-05-04T13:26:03.441Z,22.93
2023-05-04T13:31:06.493Z,22.99
2023-05-04T13:36:09.643Z,23.01
2023-05-04T13:41:12.998Z,23.02
2023-05-04T13:46:16.302Z,23.00
2023-05-04T13:51:20.076Z,23.18
2023-05-04T13:56:23.410Z,23.13
2023-05-04T14:01:31.602Z,23.04
2023-05-04T14:06:35.018Z,23.08
2023-05-04T14:13:17.050Z,23.07
2023-05-04T14:18:20.134Z,22.98
2023-05-04T14:23:23.809Z,22.83
2023-05-04T14:28:26.938Z,22.68
2023-05-04T14:33:32.822Z,22.29
2023-05-04T14:38:36.263Z,22.10
2023-05-04T14:43:39.405Z,21.86
2023-05-04T14:48:42.541Z,21.67
2023-05-04T14:53:47.958Z,21.47
2023-05-04T14:58:50.947Z,21.24
2023-05-04T15:09:58.047Z,20.76
2023-05-04T15:15:01.371Z,20.54
2023-05-04T15:20:06.405Z,20.44
2023-05-04T15:25:10.197Z,20.37
2023-05-04T15:30:13.705Z,20.31
2023-05-04T15:35:17.004Z,20.15
2023-05-04T15:40:20.071Z,20.08
2023-05-04T15:45:23.159Z,20.28
2023-05-04T15:50:26.916Z,20.42
2023-05-04T15:55:29.968Z,20.75
2023-05-04T16:00:34.679Z,21.28
2023-05-04T16:05:37.925Z,21.46
2023-05-04T16:10:41.588Z,21.52
2023-05-04T16:15:44.893Z,21.82
2023-05-04T16:20:48.709Z,21.45
2023-05-04T16:25:51.930Z,20.93
2023-05-04T16:30:55.018Z,20.33
2023-05-04T16:35:58.273Z,19.92
2023-05-04T16:41:01.362Z,19.59
2023-05-04T16:46:04.938Z,19.23
2023-05-04T16:51:12.086Z,18.80
2023-05-04T16:56:19.607Z,18.63
2023-05-04T17:01:22.735Z,18.53
2023-05-04T17:06:26.987Z,18.46
2023-05-04T17:11:32.176Z,18.30
2023-05-04T17:16:36.097Z,18.11
2023-05-04T17:21:39.666Z,17.84
2023-05-04T17:26:54.180Z,17.71
2023-05-04T17:31:57.242Z,17.59
2023-05-04T17:37:00.867Z,17.54
2023-05-04T17:42:04.327Z,17.38
2023-05-04T17:47:08.032Z,17.21
2023-05-04T17:52:13.083Z,17.07
2023-05-04T17:57:27.082Z,16.94
2023-05-04T18:02:31.852Z,16.79
2023-05-04T18:07:35.488Z,16.64
2023-05-04T18:12:38.719Z,16.47
2023-05-04T18:17:42.128Z,16.33
2023-05-04T18:22:45.579Z,16.23
2023-05-04T18:27:48.679Z,16.13
2023-05-04T18:32:51.687Z,16.08
2023-05-04T18:37:54.734Z,15.99
2023-05-04T18:42:57.766Z,15.89
2023-05-04T18:48:00.813Z,15.77
2023-05-04T18:53:05.818Z,15.76
2023-05-04T18:58:08.868Z,15.71
2023-05-04T19:03:11.916Z,15.59
2023-05-04T19:08:14.991Z,15.53
2023-05-04T19:13:18.260Z,15.47
2023-05-04T19:18:26.174Z,15.35
2023-05-04T19:23:29.152Z,15.35
2023-05-04T19:28:32.257Z,15.35
2023-05-04T19:33:47.274Z,15.25
2023-05-04T19:38:51.500Z,15.12
2023-05-04T19:43:54.492Z,15.01
2023-05-04T19:48:57.680Z,14.94
2023-05-04T19:54:00.775Z,14.81
2023-05-04T19:59:03.851Z,14.69
2023-05-04T20:04:08.499Z,14.62
2023-05-04T20:09:11.692Z,14.52
2023-05-04T20:14:14.731Z,14.41
2023-05-04T20:19:18.692Z,14.31
2023-05-04T20:24:22.432Z,14.25
2023-05-04T20:29:25.606Z,14.16
2023-05-04T20:34:28.810Z,14.08
2023-05-04T20:39:32.563Z,14.02
2023-05-04T20:44:35.530Z,13.95
2023-05-04T20:49:38.729Z,13.90
2023-05-04T20:54:42.150Z,13.85
2023-05-04T20:59:45.266Z,13.76
2023-05-04T21:04:48.673Z,13.68
2023-05-04T21:09:56.807Z,13.60
2023-05-04T21:14:59.849Z,13.52
2023-05-04T21:20:03.414Z,13.42
2023-05-04T21:25:07.192Z,13.36
2023-05-04T21:30:11.384Z,13.32
2023-05-04T21:35:27.506Z,13.29
2023-05-04T21:40:30.751Z,13.26
2023-05-04T21:45:33.919Z,13.23
2023-05-04T21:50:37.049Z,13.20
2023-05-04T21:55:40.014Z,13.17
2023-05-04T22:00:43.794Z,13.15
2023-05-04T22:05:57.944Z,13.10
2023-05-04T22:11:01.309Z,13.06
2023-05-04T22:16:04.746Z,13.01
2023-05-04T22:21:07.882Z,12.96
2023-05-04T22:26:10.984Z,12.91
2023-05-04T22:31:14.136Z,12.87
2023-05-04T22:36:17.240Z,12.82
2023-05-04T22:41:21.222Z,12.79
2023-05-04T22:46:25.774Z,12.74
2023-05-04T22:51:28.910Z,12.74
2023-05-04T22:56:33.258Z,12.70
2023-05-04T23:01:42.729Z,12.66
2023-05-04T23:06:45.774Z,12.60
2023-05-04T23:11:49.074Z,12.58
2023-05-04T23:16:52.073Z,12.51
2023-05-04T23:21:55.438Z,12.48
2023-05-04T23:26:59.001Z,12.43
2023-05-04T23:32:02.186Z,12.39
2023-05-04T23:37:05.434Z,12.37
2023-05-04T23:42:09.087Z,12.37
2023-05-04T23:47:12.103Z,12.35
2023-05-04T23:52:15.155Z,12.34
2023-05-04T23:57:18.186Z,12.31
